sensor_id;sensor_type;location;lat;lon;timestamp;temperature;humidity
16243;DHT22;11719;51.052;6.982;2022-12-31T00:00:08;15.10;99.90
16243;DHT22;11719;51.052;6.982;2022-12-31T00:02:37;15.10;99.90
16243;DHT22;11719;51.052;6.982;2022-12-31T00:05:03;15.10;99.90
16243;DHT22;11719;51.052;6.982;2022-12-31T00:07:34;15.10;99.90
16243;DHT22;11719;51.052;6.982;2022-12-31T00:10:02;15.10;99.90
16243;DHT22;11719;51.052;6.982;2022-12-31T00:12:28;15.10;99.90
16243;DHT22;11719;51.052;6.982;2022-12-31T00:14:56;15.00;99.90
16243;DHT22;11719;51.052;6.982;2022-12-31T00:17:26;15.00;99.90
16243;DHT22;11719;51.052;6.982;2022-12-31T00:19:51;15.10;99.90
16243;DHT22;11719;51.052;6.982;2022-12-31T00:22:20;15.00;99.90
16243;DHT22;11719;51.052;6.982;2022-12-31T00:24:48;15.10;99.90
16243;DHT22;11719;51.052;6.982;2022-12-31T00:27:14;15.00;99.90
16243;DHT22;11719;51.052;6.982;2022-12-31T00:29:42;15.00;99.90
16243;DHT22;11719;51.052;6.982;2022-12-31T00:32:08;15.00;99.90
16243;DHT22;11719;51.052;6.982;2022-12-31T00:34:34;15.10;99.90
16243;DHT22;11719;51.052;6.982;2022-12-31T00:37:00;15.10;99.90
16243;DHT22;11719;51.052;6.982;2022-12-31T00:39:26;15.10;99.90
16243;DHT22;11719;51.052;6.982;2022-12-31T00:41:51;15.10;99.90
16243;DHT22;11719;51.052;6.982;2022-12-31T00:44:17;15.10;99.90
16243;DHT22;11719;51.052;6.982;2022-12-31T00:46:43;15.10;99.90
16243;DHT22;11719;51.052;6.982;2022-12-31T00:49:10;15.10;99.90
16243;DHT22;11719;51.052;6.982;2022-12-31T00:51:36;15.10;99.90
16243;DHT22;11719;51.052;6.982;2022-12-31T00:54:02;15.10;99.90
16243;DHT22;11719;51.052;6.982;2022-12-31T00:56:30;15.10;99.90
16243;DHT22;11719;51.052;6.982;2022-12-31T00:58:56;15.10;99.90
16243;DHT22;11719;51.052;6.982;2022-12-31T01:01:26;15.10;99.90
16243;DHT22;11719;51.052;6.982;2022-12-31T01:03:58;15.10;99.90
16243;DHT22;11719;51.052;6.982;2022-12-31T01:06:29;15.10;99.90
16243;DHT22;11719;51.052;6.982;2022-12-31T01:08:55;15.10;99.90
16243;DHT22;11719;51.052;6.982;2022-12-31T01:11:24;15.10;99.90
16243;DHT22;11719;51.052;6.982;2022-12-31T01:14:04;15.10;99.90
16243;DHT22;11719;51.052;6.982;2022-12-31T01:16:44;15.10;99.90
16243;DHT22;11719;51.052;6.982;2022-12-31T01:19:18;15.10;99.90
16243;DHT22;11719;51.052;6.982;2022-12-31T01:21:49;15.10;99.90
16243;DHT22;11719;51.052;6.982;2022-12-31T01:24:16;15.10;99.90
16243;DHT22;11719;51.052;6.982;2022-12-31T01:26:45;15.10;99.90
16243;DHT22;11719;51.052;6.982;2022-12-31T01:29:12;15.10;99.90
16243;DHT22;11719;51.052;6.982;2022-12-31T01:31:39;15.20;99.90
16243;DHT22;11719;51.052;6.982;2022-12-31T01:34:07;15.20;99.90
16243;DHT22;11719;51.052;6.982;2022-12-31T01:36:35;15.20;99.90
16243;DHT22;11719;51.052;6.982;2022-12-31T01:39:03;15.20;99.90
16243;DHT22;11719;51.052;6.982;2022-12-31T01:41:41;15.30;99.90
16243;DHT22;11719;51.052;6.982;2022-12-31T01:46:56;15.40;99.90
16243;DHT22;11719;51.052;6.982;2022-12-31T01:49:43;15.40;99.90
16243;DHT22;11719;51.052;6.982;2022-12-31T01:52:25;15.40;99.90
16243;DHT22;11719;51.052;6.982;2022-12-31T01:55:02;15.40;99.90
16243;DHT22;11719;51.052;6.982;2022-12-31T01:57:35;15.40;99.90
16243;DHT22;11719;51.052;6.982;2022-12-31T02:00:04;15.40;99.90
16243;DHT22;11719;51.052;6.982;2022-12-31T02:02:30;15.40;99.90
16243;DHT22;11719;51.052;6.982;2022-12-31T02:04:57;15.50;99.90
16243;DHT22;11719;51.052;6.982;2022-12-31T02:07:24;15.50;99.90
16243;DHT22;11719;51.052;6.982;2022-12-31T02:09:51;15.60;99.90
16243;DHT22;11719;51.052;6.982;2022-12-31T02:12:18;15.60;99.90
16243;DHT22;11719;51.052;6.982;2022-12-31T02:14:47;15.70;99.90
16243;DHT22;11719;51.052;6.982;2022-12-31T02:17:51;15.70;99.90
16243;DHT22;11719;51.052;6.982;2022-12-31T02:29:37;15.80;99.90
16243;DHT22;11719;51.052;6.982;2022-12-31T02:32:41;15.90;99.90
16243;DHT22;11719;51.052;6.982;2022-12-31T02:35:20;15.90;99.90
16243;DHT22;11719;51.052;6.982;2022-12-31T02:38:17;15.90;99.90
16243;DHT22;11719;51.052;6.982;2022-12-31T02:40:45;15.90;99.90
16243;DHT22;11719;51.052;6.982;2022-12-31T02:43:12;15.90;99.90
16243;DHT22;11719;51.052;6.982;2022-12-31T02:45:41;16.00;99.90
16243;DHT22;11719;51.052;6.982;2022-12-31T02:48:26;16.00;99.90
16243;DHT22;11719;51.052;6.982;2022-12-31T02:51:20;16.00;99.90
16243;DHT22;11719;51.052;6.982;2022-12-31T02:57:03;16.10;99.90
16243;DHT22;11719;51.052;6.982;2022-12-31T02:59:49;16.20;99.90
16243;DHT22;11719;51.052;6.982;2022-12-31T03:02:41;16.10;99.90
16243;DHT22;11719;51.052;6.982;2022-12-31T03:05:09;16.20;99.90
16243;DHT22;11719;51.052;6.982;2022-12-31T03:07:39;16.20;99.90
16243;DHT22;11719;51.052;6.982;2022-12-31T03:10:06;16.20;99.90
16243;DHT22;11719;51.052;6.982;2022-12-31T03:12:33;16.30;99.90
16243;DHT22;11719;51.052;6.982;2022-12-31T03:15:27;16.30;99.90
16243;DHT22;11719;51.052;6.982;2022-12-31T03:20:38;16.50;99.90
16243;DHT22;11719;51.052;6.982;2022-12-31T03:23:29;16.60;99.90
16243;DHT22;11719;51.052;6.982;2022-12-31T03:25:58;16.60;99.90
16243;DHT22;11719;51.052;6.982;2022-12-31T03:28:27;16.60;99.90
16243;DHT22;11719;51.052;6.982;2022-12-31T03:30:59;16.70;99.90
16243;DHT22;11719;51.052;6.982;2022-12-31T03:33:30;16.70;99.90
16243;DHT22;11719;51.052;6.982;2022-12-31T03:36:01;16.70;99.90
16243;DHT22;11719;51.052;6.982;2022-12-31T03:38:31;16.70;99.90
16243;DHT22;11719;51.052;6.982;2022-12-31T03:40:57;16.80;99.90
16243;DHT22;11719;51.052;6.982;2022-12-31T03:43:23;16.80;99.90
16243;DHT22;11719;51.052;6.982;2022-12-31T03:45:50;16.80;99.90
16243;DHT22;11719;51.052;6.982;2022-12-31T03:48:17;16.80;99.90
16243;DHT22;11719;51.052;6.982;2022-12-31T03:50:43;16.80;99.90
16243;DHT22;11719;51.052;6.982;2022-12-31T03:53:09;16.80;99.90
16243;DHT22;11719;51.052;6.982;2022-12-31T03:55:35;16.90;99.90
16243;DHT22;11719;51.052;6.982;2022-12-31T03:58:02;16.90;99.90
16243;DHT22;11719;51.052;6.982;2022-12-31T04:00:28;16.90;99.90
16243;DHT22;11719;51.052;6.982;2022-12-31T04:02:54;16.90;99.90
16243;DHT22;11719;51.052;6.982;2022-12-31T04:05:20;16.90;99.90
16243;DHT22;11719;51.052;6.982;2022-12-31T04:07:47;16.90;99.90
16243;DHT22;11719;51.052;6.982;2022-12-31T04:10:14;16.90;99.90
16243;DHT22;11719;51.052;6.982;2022-12-31T04:12:42;16.90;99.90
16243;DHT22;11719;51.052;6.982;2022-12-31T04:15:10;16.90;99.90
16243;DHT22;11719;51.052;6.982;2022-12-31T04:17:41;16.90;99.90
16243;DHT22;11719;51.052;6.982;2022-12-31T04:20:08;16.90;99.90
16243;DHT22;11719;51.052;6.982;2022-12-31T04:22:34;16.90;99.90
16243;DHT22;11719;51.052;6.982;2022-12-31T04:25:00;16.90;99.90
16243;DHT22;11719;51.052;6.982;2022-12-31T04:27:26;16.90;99.90
16243;DHT22;11719;51.052;6.982;2022-12-31T04:29:51;16.90;99.90
16243;DHT22;11719;51.052;6.982;2022-12-31T04:32:17;16.90;99.90
16243;DHT22;11719;51.052;6.982;2022-12-31T04:34:43;17.00;99.90
16243;DHT22;11719;51.052;6.982;2022-12-31T04:37:09;17.00;99.90
16243;DHT22;11719;51.052;6.982;2022-12-31T04:39:35;17.00;99.90
16243;DHT22;11719;51.052;6.982;2022-12-31T04:42:01;17.00;99.90
16243;DHT22;11719;51.052;6.982;2022-12-31T04:44:26;17.00;99.90
16243;DHT22;11719;51.052;6.982;2022-12-31T04:46:52;17.00;99.90
16243;DHT22;11719;51.052;6.982;2022-12-31T04:49:18;17.00;99.90
16243;DHT22;11719;51.052;6.982;2022-12-31T04:51:44;17.00;99.90
16243;DHT22;11719;51.052;6.982;2022-12-31T04:54:10;17.00;99.90
16243;DHT22;11719;51.052;6.982;2022-12-31T04:56:35;17.00;99.90
16243;DHT22;11719;51.052;6.982;2022-12-31T04:59:03;17.00;99.90
16243;DHT22;11719;51.052;6.982;2022-12-31T05:01:29;17.00;99.90
16243;DHT22;11719;51.052;6.982;2022-12-31T05:03:55;17.10;99.90
16243;DHT22;11719;51.052;6.982;2022-12-31T05:06:22;17.10;99.90
16243;DHT22;11719;51.052;6.982;2022-12-31T05:08:48;17.10;99.90
16243;DHT22;11719;51.052;6.982;2022-12-31T05:11:15;17.10;99.90
16243;DHT22;11719;51.052;6.982;2022-12-31T05:13:42;17.10;99.90
16243;DHT22;11719;51.052;6.982;2022-12-31T05:16:08;17.10;99.90
16243;DHT22;11719;51.052;6.982;2022-12-31T05:18:35;17.20;99.90
16243;DHT22;11719;51.052;6.982;2022-12-31T05:21:01;17.20;99.90
16243;DHT22;11719;51.052;6.982;2022-12-31T05:23:28;17.20;99.90
16243;DHT22;11719;51.052;6.982;2022-12-31T05:25:53;17.20;99.90
16243;DHT22;11719;51.052;6.982;2022-12-31T05:28:20;17.30;99.90
16243;DHT22;11719;51.052;6.982;2022-12-31T05:30:49;17.30;99.90
16243;DHT22;11719;51.052;6.982;2022-12-31T05:33:16;17.30;99.90
16243;DHT22;11719;51.052;6.982;2022-12-31T05:35:43;17.40;99.90
16243;DHT22;11719;51.052;6.982;2022-12-31T05:38:09;17.40;99.90
16243;DHT22;11719;51.052;6.982;2022-12-31T05:40:35;17.50;99.90
16243;DHT22;11719;51.052;6.982;2022-12-31T05:43:01;17.50;99.90
16243;DHT22;11719;51.052;6.982;2022-12-31T05:45:26;17.50;99.90
16243;DHT22;11719;51.052;6.982;2022-12-31T05:47:52;17.50;99.90
16243;DHT22;11719;51.052;6.982;2022-12-31T05:50:18;17.50;99.90
16243;DHT22;11719;51.052;6.982;2022-12-31T05:52:44;17.60;99.90
16243;DHT22;11719;51.052;6.982;2022-12-31T05:55:12;17.50;99.90
16243;DHT22;11719;51.052;6.982;2022-12-31T05:57:38;17.50;99.90
16243;DHT22;11719;51.052;6.982;2022-12-31T06:00:07;17.60;99.90
16243;DHT22;11719;51.052;6.982;2022-12-31T06:02:33;17.60;99.90
16243;DHT22;11719;51.052;6.982;2022-12-31T06:04:59;17.60;99.90
16243;DHT22;11719;51.052;6.982;2022-12-31T06:07:25;17.60;99.90
16243;DHT22;11719;51.052;6.982;2022-12-31T06:09:51;17.60;99.90
16243;DHT22;11719;51.052;6.982;2022-12-31T06:12:16;17.60;99.90
16243;DHT22;11719;51.052;6.982;2022-12-31T06:14:43;17.70;99.90
16243;DHT22;11719;51.052;6.982;2022-12-31T06:17:09;17.70;99.90
16243;DHT22;11719;51.052;6.982;2022-12-31T06:19:35;17.60;99.90
16243;DHT22;11719;51.052;6.982;2022-12-31T06:22:00;17.70;99.90
16243;DHT22;11719;51.052;6.982;2022-12-31T06:24:26;17.70;99.90
16243;DHT22;11719;51.052;6.982;2022-12-31T06:26:52;17.70;99.90
16243;DHT22;11719;51.052;6.982;2022-12-31T06:29:18;17.70;99.90
16243;DHT22;11719;51.052;6.982;2022-12-31T06:31:44;17.80;99.90
16243;DHT22;11719;51.052;6.982;2022-12-31T06:34:09;17.70;99.90
16243;DHT22;11719;51.052;6.982;2022-12-31T06:36:37;17.70;99.90
16243;DHT22;11719;51.052;6.982;2022-12-31T06:39:03;17.70;99.90
16243;DHT22;11719;51.052;6.982;2022-12-31T06:41:29;17.70;99.90
16243;DHT22;11719;51.052;6.982;2022-12-31T06:43:55;17.70;99.90
16243;DHT22;11719;51.052;6.982;2022-12-31T06:46:21;17.70;99.90
16243;DHT22;11719;51.052;6.982;2022-12-31T06:48:47;17.70;99.90
16243;DHT22;11719;51.052;6.982;2022-12-31T06:51:17;17.80;99.90
16243;DHT22;11719;51.052;6.982;2022-12-31T06:53:44;17.70;99.90
16243;DHT22;11719;51.052;6.982;2022-12-31T06:58:42;17.70;99.90
16243;DHT22;11719;51.052;6.982;2022-12-31T07:10:21;17.80;99.90
16243;DHT22;11719;51.052;6.982;2022-12-31T07:16:32;17.80;99.90
16243;DHT22;11719;51.052;6.982;2022-12-31T07:19:49;17.80;99.90
16243;DHT22;11719;51.052;6.982;2022-12-31T07:22:21;17.80;99.90
16243;DHT22;11719;51.052;6.982;2022-12-31T07:24:47;17.70;99.90
16243;DHT22;11719;51.052;6.982;2022-12-31T07:27:38;17.80;99.90
16243;DHT22;11719;51.052;6.982;2022-12-31T07:30:45;17.80;99.90
16243;DHT22;11719;51.052;6.982;2022-12-31T07:40:07;17.80;99.90
16243;DHT22;11719;51.052;6.982;2022-12-31T07:42:52;17.80;99.90
16243;DHT22;11719;51.052;6.982;2022-12-31T07:45:36;17.80;99.90
16243;DHT22;11719;51.052;6.982;2022-12-31T07:48:24;17.80;99.90
16243;DHT22;11719;51.052;6.982;2022-12-31T07:50:53;17.80;99.90
16243;DHT22;11719;51.052;6.982;2022-12-31T07:53:21;17.80;99.90
16243;DHT22;11719;51.052;6.982;2022-12-31T07:55:56;17.80;99.90
16243;DHT22;11719;51.052;6.982;2022-12-31T08:04:58;17.80;99.90
16243;DHT22;11719;51.052;6.982;2022-12-31T08:13:25;17.80;99.90
16243;DHT22;11719;51.052;6.982;2022-12-31T08:15:52;17.80;99.90
16243;DHT22;11719;51.052;6.982;2022-12-31T08:18:18;17.80;99.90
16243;DHT22;11719;51.052;6.982;2022-12-31T08:24:44;17.80;99.90
16243;DHT22;11719;51.052;6.982;2022-12-31T08:27:18;17.80;99.90
16243;DHT22;11719;51.052;6.982;2022-12-31T08:30:04;17.80;99.90
16243;DHT22;11719;51.052;6.982;2022-12-31T08:38:14;17.70;99.90
16243;DHT22;11719;51.052;6.982;2022-12-31T08:41:26;17.80;99.90
16243;DHT22;11719;51.052;6.982;2022-12-31T08:47:12;17.80;99.90
16243;DHT22;11719;51.052;6.982;2022-12-31T08:49:56;17.80;99.90
16243;DHT22;11719;51.052;6.982;2022-12-31T08:52:24;17.80;99.90
16243;DHT22;11719;51.052;6.982;2022-12-31T08:54:51;17.80;99.90
16243;DHT22;11719;51.052;6.982;2022-12-31T09:00:16;17.90;99.90
16243;DHT22;11719;51.052;6.982;2022-12-31T09:05:46;17.90;99.90
16243;DHT22;11719;51.052;6.982;2022-12-31T09:08:45;17.90;99.90
16243;DHT22;11719;51.052;6.982;2022-12-31T09:19:50;17.80;99.90
16243;DHT22;11719;51.052;6.982;2022-12-31T09:22:16;17.90;99.90
16243;DHT22;11719;51.052;6.982;2022-12-31T09:24:43;17.90;99.90
16243;DHT22;11719;51.052;6.982;2022-12-31T09:27:21;17.80;99.90
16243;DHT22;11719;51.052;6.982;2022-12-31T09:30:02;17.90;99.90
16243;DHT22;11719;51.052;6.982;2022-12-31T09:32:46;17.90;99.90
16243;DHT22;11719;51.052;6.982;2022-12-31T09:38:29;17.90;99.90
16243;DHT22;11719;51.052;6.982;2022-12-31T09:44:03;17.90;99.90
16243;DHT22;11719;51.052;6.982;2022-12-31T09:49:53;18.00;99.90
16243;DHT22;11719;51.052;6.982;2022-12-31T09:53:06;17.90;99.90
16243;DHT22;11719;51.052;6.982;2022-12-31T09:55:43;17.90;99.90
16243;DHT22;11719;51.052;6.982;2022-12-31T09:58:35;17.90;99.90
16243;DHT22;11719;51.052;6.982;2022-12-31T10:23:37;18.10;99.90
16243;DHT22;11719;51.052;6.982;2022-12-31T10:38:10;18.20;99.90
16243;DHT22;11719;51.052;6.982;2022-12-31T10:44:29;18.30;99.90
16243;DHT22;11719;51.052;6.982;2022-12-31T10:47:45;18.20;99.90
16243;DHT22;11719;51.052;6.982;2022-12-31T10:59:51;18.20;99.90
16243;DHT22;11719;51.052;6.982;2022-12-31T11:03:18;18.20;99.90
16243;DHT22;11719;51.052;6.982;2022-12-31T11:32:11;18.30;99.90
16243;DHT22;11719;51.052;6.982;2022-12-31T11:37:39;18.30;99.90
16243;DHT22;11719;51.052;6.982;2022-12-31T11:40:32;18.20;99.90
16243;DHT22;11719;51.052;6.982;2022-12-31T11:43:25;18.30;99.90
16243;DHT22;11719;51.052;6.982;2022-12-31T11:51:57;18.40;99.90
16243;DHT22;11719;51.052;6.982;2022-12-31T11:57:36;18.30;99.90
16243;DHT22;11719;51.052;6.982;2022-12-31T12:00:16;18.40;99.90
16243;DHT22;11719;51.052;6.982;2022-12-31T12:02:48;18.40;99.90
16243;DHT22;11719;51.052;6.982;2022-12-31T12:05:23;18.40;99.90
16243;DHT22;11719;51.052;6.982;2022-12-31T12:07:51;18.40;99.90
16243;DHT22;11719;51.052;6.982;2022-12-31T12:10:33;18.40;99.90
16243;DHT22;11719;51.052;6.982;2022-12-31T12:13:22;18.30;99.90
16243;DHT22;11719;51.052;6.982;2022-12-31T12:16:00;18.30;99.90
16243;DHT22;11719;51.052;6.982;2022-12-31T12:18:46;18.30;99.90
16243;DHT22;11719;51.052;6.982;2022-12-31T12:21:21;18.40;99.90
16243;DHT22;11719;51.052;6.982;2022-12-31T12:24:03;18.30;99.90
16243;DHT22;11719;51.052;6.982;2022-12-31T12:26:42;18.30;99.90
16243;DHT22;11719;51.052;6.982;2022-12-31T12:29:16;18.40;99.90
16243;DHT22;11719;51.052;6.982;2022-12-31T12:32:04;18.30;99.90
16243;DHT22;11719;51.052;6.982;2022-12-31T12:34:33;18.30;99.90
16243;DHT22;11719;51.052;6.982;2022-12-31T12:37:00;18.30;99.90
16243;DHT22;11719;51.052;6.982;2022-12-31T12:39:29;18.30;99.90
16243;DHT22;11719;51.052;6.982;2022-12-31T12:44:40;18.30;99.90
16243;DHT22;11719;51.052;6.982;2022-12-31T12:47:13;18.30;99.90
16243;DHT22;11719;51.052;6.982;2022-12-31T12:49:48;18.30;99.90
16243;DHT22;11719;51.052;6.982;2022-12-31T12:55:30;18.30;99.90
16243;DHT22;11719;51.052;6.982;2022-12-31T13:15:09;18.30;99.90
16243;DHT22;11719;51.052;6.982;2022-12-31T13:21:09;18.20;99.90
16243;DHT22;11719;51.052;6.982;2022-12-31T13:24:27;18.20;99.90
16243;DHT22;11719;51.052;6.982;2022-12-31T13:30:02;18.10;99.90
16243;DHT22;11719;51.052;6.982;2022-12-31T13:32:41;18.10;99.90
16243;DHT22;11719;51.052;6.982;2022-12-31T13:35:26;18.10;99.90
16243;DHT22;11719;51.052;6.982;2022-12-31T13:38:05;18.00;99.90
16243;DHT22;11719;51.052;6.982;2022-12-31T13:46:10;17.80;99.90
16243;DHT22;11719;51.052;6.982;2022-12-31T13:48:52;17.70;99.90
16243;DHT22;11719;51.052;6.982;2022-12-31T13:57:03;17.60;99.90
16243;DHT22;11719;51.052;6.982;2022-12-31T13:59:46;17.50;99.90
16243;DHT22;11719;51.052;6.982;2022-12-31T14:02:30;17.50;99.90
16243;DHT22;11719;51.052;6.982;2022-12-31T14:05:14;17.50;99.90
16243;DHT22;11719;51.052;6.982;2022-12-31T14:07:52;17.50;99.90
16243;DHT22;11719;51.052;6.982;2022-12-31T14:10:44;17.50;99.90
16243;DHT22;11719;51.052;6.982;2022-12-31T14:16:25;17.40;99.90
16243;DHT22;11719;51.052;6.982;2022-12-31T14:21:52;17.40;99.90
16243;DHT22;11719;51.052;6.982;2022-12-31T14:27:33;17.40;99.90
16243;DHT22;11719;51.052;6.982;2022-12-31T14:30:03;17.40;99.90
16243;DHT22;11719;51.052;6.982;2022-12-31T14:38:07;17.40;99.90
16243;DHT22;11719;51.052;6.982;2022-12-31T14:40:47;17.40;99.90
16243;DHT22;11719;51.052;6.982;2022-12-31T14:52:31;17.40;99.90
16243;DHT22;11719;51.052;6.982;2022-12-31T14:57:36;17.40;99.90
16243;DHT22;11719;51.052;6.982;2022-12-31T15:00:27;17.30;99.90
16243;DHT22;11719;51.052;6.982;2022-12-31T15:03:00;17.40;99.90
16243;DHT22;11719;51.052;6.982;2022-12-31T15:05:35;17.30;99.90
16243;DHT22;11719;51.052;6.982;2022-12-31T15:23:34;17.30;99.90
16243;DHT22;11719;51.052;6.982;2022-12-31T15:26:01;17.40;99.90
16243;DHT22;11719;51.052;6.982;2022-12-31T15:31:17;17.40;99.90
16243;DHT22;11719;51.052;6.982;2022-12-31T15:34:00;17.40;99.90
16243;DHT22;11719;51.052;6.982;2022-12-31T15:36:30;17.40;99.90
16243;DHT22;11719;51.052;6.982;2022-12-31T15:41:38;17.50;99.90
16243;DHT22;11719;51.052;6.982;2022-12-31T15:47:01;17.50;99.90
16243;DHT22;11719;51.052;6.982;2022-12-31T15:49:47;17.60;99.90
16243;DHT22;11719;51.052;6.982;2022-12-31T15:52:21;17.50;99.90
16243;DHT22;11719;51.052;6.982;2022-12-31T15:54:53;17.50;99.90
16243;DHT22;11719;51.052;6.982;2022-12-31T15:57:32;17.50;99.90
16243;DHT22;11719;51.052;6.982;2022-12-31T16:00:19;17.50;99.90
16243;DHT22;11719;51.052;6.982;2022-12-31T16:02:51;17.50;99.90
16243;DHT22;11719;51.052;6.982;2022-12-31T16:05:24;17.50;99.90
16243;DHT22;11719;51.052;6.982;2022-12-31T16:07:53;17.50;99.90
16243;DHT22;11719;51.052;6.982;2022-12-31T16:10:30;17.50;99.90
16243;DHT22;11719;51.052;6.982;2022-12-31T16:12:57;17.50;99.90
16243;DHT22;11719;51.052;6.982;2022-12-31T16:15:31;17.50;99.90
16243;DHT22;11719;51.052;6.982;2022-12-31T16:18:03;17.50;99.90
16243;DHT22;11719;51.052;6.982;2022-12-31T16:20:32;17.50;99.90
16243;DHT22;11719;51.052;6.982;2022-12-31T16:23:00;17.50;99.90
16243;DHT22;11719;51.052;6.982;2022-12-31T16:25:29;17.50;99.90
16243;DHT22;11719;51.052;6.982;2022-12-31T16:27:56;17.50;99.90
16243;DHT22;11719;51.052;6.982;2022-12-31T16:30:29;17.50;99.90
16243;DHT22;11719;51.052;6.982;2022-12-31T16:33:05;17.50;99.90
16243;DHT22;11719;51.052;6.982;2022-12-31T16:35:35;17.40;99.90
16243;DHT22;11719;51.052;6.982;2022-12-31T16:46:27;17.40;99.90
16243;DHT22;11719;51.052;6.982;2022-12-31T16:49:10;17.30;99.90
16243;DHT22;11719;51.052;6.982;2022-12-31T16:51:41;17.30;99.90
16243;DHT22;11719;51.052;6.982;2022-12-31T16:54:25;17.30;99.90
16243;DHT22;11719;51.052;6.982;2022-12-31T16:56:57;17.30;99.90
16243;DHT22;11719;51.052;6.982;2022-12-31T16:59:27;17.30;99.90
16243;DHT22;11719;51.052;6.982;2022-12-31T17:01:59;17.30;99.90
16243;DHT22;11719;51.052;6.982;2022-12-31T17:04:26;17.30;99.90
16243;DHT22;11719;51.052;6.982;2022-12-31T17:06:52;17.30;99.90
16243;DHT22;11719;51.052;6.982;2022-12-31T17:09:30;17.30;99.90
16243;DHT22;11719;51.052;6.982;2022-12-31T17:12:14;17.30;99.90
16243;DHT22;11719;51.052;6.982;2022-12-31T17:14:49;17.30;99.90
16243;DHT22;11719;51.052;6.982;2022-12-31T17:17:25;17.30;99.90
16243;DHT22;11719;51.052;6.982;2022-12-31T17:19:57;17.30;99.90
16243;DHT22;11719;51.052;6.982;2022-12-31T17:22:30;17.30;99.90
16243;DHT22;11719;51.052;6.982;2022-12-31T17:25:12;17.30;99.90
16243;DHT22;11719;51.052;6.982;2022-12-31T17:27:51;17.30;99.90
16243;DHT22;11719;51.052;6.982;2022-12-31T17:35:55;17.20;99.90
16243;DHT22;11719;51.052;6.982;2022-12-31T17:40:50;17.20;99.90
16243;DHT22;11719;51.052;6.982;2022-12-31T17:43:31;17.20;99.90
16243;DHT22;11719;51.052;6.982;2022-12-31T17:45:58;17.20;99.90
16243;DHT22;11719;51.052;6.982;2022-12-31T17:48:24;17.20;99.90
16243;DHT22;11719;51.052;6.982;2022-12-31T17:50:52;17.10;99.90
16243;DHT22;11719;51.052;6.982;2022-12-31T17:53:19;17.10;99.90
16243;DHT22;11719;51.052;6.982;2022-12-31T17:55:50;17.20;99.90
16243;DHT22;11719;51.052;6.982;2022-12-31T17:58:24;17.20;99.90
16243;DHT22;11719;51.052;6.982;2022-12-31T18:01:00;17.10;99.90
16243;DHT22;11719;51.052;6.982;2022-12-31T18:03:26;17.20;99.90
16243;DHT22;11719;51.052;6.982;2022-12-31T18:05:52;17.20;99.90
16243;DHT22;11719;51.052;6.982;2022-12-31T18:08:18;17.20;99.90
16243;DHT22;11719;51.052;6.982;2022-12-31T18:10:44;17.10;99.90
16243;DHT22;11719;51.052;6.982;2022-12-31T18:13:15;17.10;99.90
16243;DHT22;11719;51.052;6.982;2022-12-31T18:15:43;17.20;99.90
16243;DHT22;11719;51.052;6.982;2022-12-31T18:20:45;17.10;99.90
16243;DHT22;11719;51.052;6.982;2022-12-31T18:23:19;17.10;99.90
16243;DHT22;11719;51.052;6.982;2022-12-31T18:25:46;17.20;99.90
16243;DHT22;11719;51.052;6.982;2022-12-31T18:28:11;17.20;99.90
16243;DHT22;11719;51.052;6.982;2022-12-31T18:30:38;17.20;99.90
16243;DHT22;11719;51.052;6.982;2022-12-31T18:33:05;17.20;99.90
16243;DHT22;11719;51.052;6.982;2022-12-31T18:35:31;17.20;99.90
16243;DHT22;11719;51.052;6.982;2022-12-31T18:37:57;17.10;99.90
16243;DHT22;11719;51.052;6.982;2022-12-31T18:40:24;17.10;99.90
16243;DHT22;11719;51.052;6.982;2022-12-31T18:42:50;17.10;99.90
16243;DHT22;11719;51.052;6.982;2022-12-31T18:45:17;17.10;99.90
16243;DHT22;11719;51.052;6.982;2022-12-31T18:47:44;17.10;99.90
16243;DHT22;11719;51.052;6.982;2022-12-31T18:50:14;17.10;99.90
16243;DHT22;11719;51.052;6.982;2022-12-31T18:52:41;17.10;99.90
16243;DHT22;11719;51.052;6.982;2022-12-31T18:55:32;17.10;99.90
16243;DHT22;11719;51.052;6.982;2022-12-31T18:58:03;17.10;99.90
16243;DHT22;11719;51.052;6.982;2022-12-31T19:00:29;17.10;99.90
16243;DHT22;11719;51.052;6.982;2022-12-31T19:02:55;17.10;99.90
16243;DHT22;11719;51.052;6.982;2022-12-31T19:05:22;17.10;99.90
16243;DHT22;11719;51.052;6.982;2022-12-31T19:07:50;17.00;99.90
16243;DHT22;11719;51.052;6.982;2022-12-31T19:10:16;17.10;99.90
16243;DHT22;11719;51.052;6.982;2022-12-31T19:12:43;17.10;99.90
16243;DHT22;11719;51.052;6.982;2022-12-31T19:15:33;17.10;99.90
16243;DHT22;11719;51.052;6.982;2022-12-31T19:18:03;17.10;99.90
16243;DHT22;11719;51.052;6.982;2022-12-31T19:20:29;17.10;99.90
16243;DHT22;11719;51.052;6.982;2022-12-31T19:22:56;17.10;99.90
16243;DHT22;11719;51.052;6.982;2022-12-31T19:25:24;17.10;99.90
16243;DHT22;11719;51.052;6.982;2022-12-31T19:27:52;17.10;99.90
16243;DHT22;11719;51.052;6.982;2022-12-31T19:30:27;17.10;99.90
16243;DHT22;11719;51.052;6.982;2022-12-31T19:32:58;17.10;99.90
16243;DHT22;11719;51.052;6.982;2022-12-31T19:35:25;17.10;99.90
16243;DHT22;11719;51.052;6.982;2022-12-31T19:37:53;17.10;99.90
16243;DHT22;11719;51.052;6.982;2022-12-31T19:40:24;17.10;99.90
16243;DHT22;11719;51.052;6.982;2022-12-31T19:42:55;17.00;99.90
16243;DHT22;11719;51.052;6.982;2022-12-31T19:45:23;17.00;99.90
16243;DHT22;11719;51.052;6.982;2022-12-31T19:47:51;17.10;99.90
16243;DHT22;11719;51.052;6.982;2022-12-31T19:50:23;17.10;99.90
16243;DHT22;11719;51.052;6.982;2022-12-31T19:52:56;17.00;99.90
16243;DHT22;11719;51.052;6.982;2022-12-31T19:55:23;17.00;99.90
16243;DHT22;11719;51.052;6.982;2022-12-31T19:57:52;17.00;99.90
16243;DHT22;11719;51.052;6.982;2022-12-31T20:00:19;17.00;99.90
16243;DHT22;11719;51.052;6.982;2022-12-31T20:02:46;17.00;99.90
16243;DHT22;11719;51.052;6.982;2022-12-31T20:05:14;17.10;99.90
16243;DHT22;11719;51.052;6.982;2022-12-31T20:07:40;17.00;99.90
16243;DHT22;11719;51.052;6.982;2022-12-31T20:10:07;17.00;99.90
16243;DHT22;11719;51.052;6.982;2022-12-31T20:12:33;17.00;99.90
16243;DHT22;11719;51.052;6.982;2022-12-31T20:14:59;17.00;99.90
16243;DHT22;11719;51.052;6.982;2022-12-31T20:17:25;17.00;99.90
16243;DHT22;11719;51.052;6.982;2022-12-31T20:19:51;17.00;99.90
16243;DHT22;11719;51.052;6.982;2022-12-31T20:22:16;17.00;99.90
16243;DHT22;11719;51.052;6.982;2022-12-31T20:24:42;17.00;99.90
16243;DHT22;11719;51.052;6.982;2022-12-31T20:27:08;17.10;99.90
16243;DHT22;11719;51.052;6.982;2022-12-31T20:29:34;17.00;99.90
16243;DHT22;11719;51.052;6.982;2022-12-31T20:32:01;17.00;99.90
16243;DHT22;11719;51.052;6.982;2022-12-31T20:34:27;17.00;99.90
16243;DHT22;11719;51.052;6.982;2022-12-31T20:36:54;17.00;99.90
16243;DHT22;11719;51.052;6.982;2022-12-31T20:39:20;17.00;99.90
16243;DHT22;11719;51.052;6.982;2022-12-31T20:41:46;17.00;99.90
16243;DHT22;11719;51.052;6.982;2022-12-31T20:44:12;17.00;99.90